sensor_id;sensor_type;location;lat;lon;timestamp;P1;durP1;ratioP1;P2;durP2;ratioP2
58196;SDS011;43999;51.660;5.616;2023-07-24T00:00:34;5.65;;;5.05;;
58196;SDS011;43999;51.660;5.616;2023-07-24T00:03:02;5.75;;;4.75;;
58196;SDS011;43999;51.660;5.616;2023-07-24T00:05:29;3.80;;;3.35;;
58196;SDS011;43999;51.660;5.616;2023-07-24T00:07:57;7.55;;;4.85;;
58196;SDS011;43999;51.660;5.616;2023-07-24T00:10:24;5.60;;;4.57;;
58196;SDS011;43999;51.660;5.616;2023-07-24T00:12:52;5.05;;;4.05;;
58196;SDS011;43999;51.660;5.616;2023-07-24T00:15:19;5.18;;;4.65;;
58196;SDS011;43999;51.660;5.616;2023-07-24T00:17:47;6.15;;;4.53;;
58196;SDS011;43999;51.660;5.616;2023-07-24T00:20:14;5.38;;;3.92;;
58196;SDS011;43999;51.660;5.616;2023-07-24T00:22:41;5.28;;;4.60;;
58196;SDS011;43999;51.660;5.616;2023-07-24T00:25:09;4.85;;;4.40;;
58196;SDS011;43999;51.660;5.616;2023-07-24T00:27:36;5.18;;;4.63;;
58196;SDS011;43999;51.660;5.616;2023-07-24T00:30:05;5.95;;;4.35;;
58196;SDS011;43999;51.660;5.616;2023-07-24T00:32:33;6.20;;;5.45;;
58196;SDS011;43999;51.660;5.616;2023-07-24T00:35:01;5.05;;;4.38;;
58196;SDS011;43999;51.660;5.616;2023-07-24T00:37:28;4.82;;;4.32;;
58196;SDS011;43999;51.660;5.616;2023-07-24T00:39:56;5.57;;;4.95;;
58196;SDS011;43999;51.660;5.616;2023-07-24T00:42:23;6.15;;;4.82;;
58196;SDS011;43999;51.660;5.616;2023-07-24T00:44:50;5.90;;;5.35;;
58196;SDS011;43999;51.660;5.616;2023-07-24T00:47:18;4.60;;;4.20;;
58196;SDS011;43999;51.660;5.616;2023-07-24T00:49:45;7.35;;;5.70;;
58196;SDS011;43999;51.660;5.616;2023-07-24T00:52:14;5.20;;;4.57;;
58196;SDS011;43999;51.660;5.616;2023-07-24T00:54:43;7.70;;;5.15;;
58196;SDS011;43999;51.660;5.616;2023-07-24T00:57:13;6.57;;;4.78;;
58196;SDS011;43999;51.660;5.616;2023-07-24T00:59:41;6.30;;;5.15;;
58196;SDS011;43999;51.660;5.616;2023-07-24T01:02:09;6.03;;;5.03;;
58196;SDS011;43999;51.660;5.616;2023-07-24T01:04:38;8.30;;;6.07;;
58196;SDS011;43999;51.660;5.616;2023-07-24T01:07:06;8.07;;;5.95;;
58196;SDS011;43999;51.660;5.616;2023-07-24T01:09:34;5.75;;;5.20;;
58196;SDS011;43999;51.660;5.616;2023-07-24T01:12:13;6.68;;;4.88;;
58196;SDS011;43999;51.660;5.616;2023-07-24T01:15:09;6.68;;;5.25;;
58196;SDS011;43999;51.660;5.616;2023-07-24T01:18:03;8.20;;;5.38;;
58196;SDS011;43999;51.660;5.616;2023-07-24T01:20:37;7.13;;;5.45;;
58196;SDS011;43999;51.660;5.616;2023-07-24T01:26:23;7.28;;;5.72;;
58196;SDS011;43999;51.660;5.616;2023-07-24T01:28:51;7.03;;;5.50;;
58196;SDS011;43999;51.660;5.616;2023-07-24T01:31:19;7.22;;;5.55;;
58196;SDS011;43999;51.660;5.616;2023-07-24T01:33:46;11.02;;;7.22;;
58196;SDS011;43999;51.660;5.616;2023-07-24T01:36:16;8.68;;;6.32;;
58196;SDS011;43999;51.660;5.616;2023-07-24T01:38:46;9.13;;;6.47;;
58196;SDS011;43999;51.660;5.616;2023-07-24T01:41:17;6.60;;;5.90;;
58196;SDS011;43999;51.660;5.616;2023-07-24T01:43:45;8.48;;;6.50;;
58196;SDS011;43999;51.660;5.616;2023-07-24T01:46:13;7.93;;;6.57;;
58196;SDS011;43999;51.660;5.616;2023-07-24T01:48:42;8.95;;;6.60;;
58196;SDS011;43999;51.660;5.616;2023-07-24T01:51:09;7.53;;;6.45;;
58196;SDS011;43999;51.660;5.616;2023-07-24T01:53:37;7.53;;;5.97;;
58196;SDS011;43999;51.660;5.616;2023-07-24T01:56:04;8.98;;;7.25;;
58196;SDS011;43999;51.660;5.616;2023-07-24T01:58:32;8.23;;;7.00;;
58196;SDS011;43999;51.660;5.616;2023-07-24T02:00:59;8.88;;;7.80;;
58196;SDS011;43999;51.660;5.616;2023-07-24T02:03:26;8.27;;;7.30;;
58196;SDS011;43999;51.660;5.616;2023-07-24T02:05:54;9.38;;;6.78;;
58196;SDS011;43999;51.660;5.616;2023-07-24T02:08:21;9.10;;;6.80;;
58196;SDS011;43999;51.660;5.616;2023-07-24T02:10:49;10.35;;;7.05;;
58196;SDS011;43999;51.660;5.616;2023-07-24T02:13:17;11.35;;;7.40;;
58196;SDS011;43999;51.660;5.616;2023-07-24T02:15:48;6.68;;;5.93;;
58196;SDS011;43999;51.660;5.616;2023-07-24T02:18:17;10.02;;;6.88;;
58196;SDS011;43999;51.660;5.616;2023-07-24T02:20:50;9.65;;;6.13;;
58196;SDS011;43999;51.660;5.616;2023-07-24T02:23:18;7.50;;;6.43;;
58196;SDS011;43999;51.660;5.616;2023-07-24T02:25:45;6.57;;;5.18;;
58196;SDS011;43999;51.660;5.616;2023-07-24T02:28:16;6.15;;;5.15;;
58196;SDS011;43999;51.660;5.616;2023-07-24T02:30:44;8.77;;;6.30;;
58196;SDS011;43999;51.660;5.616;2023-07-24T02:33:14;7.40;;;6.05;;
58196;SDS011;43999;51.660;5.616;2023-07-24T02:35:42;7.15;;;6.20;;
58196;SDS011;43999;51.660;5.616;2023-07-24T02:38:09;7.50;;;5.50;;
58196;SDS011;43999;51.660;5.616;2023-07-24T02:40:40;8.23;;;6.05;;
58196;SDS011;43999;51.660;5.616;2023-07-24T02:43:08;8.15;;;7.30;;
58196;SDS011;43999;51.660;5.616;2023-07-24T02:45:37;7.70;;;6.68;;
58196;SDS011;43999;51.660;5.616;2023-07-24T02:48:05;8.55;;;6.25;;
58196;SDS011;43999;51.660;5.616;2023-07-24T02:50:33;8.52;;;6.80;;
58196;SDS011;43999;51.660;5.616;2023-07-24T02:53:01;8.70;;;7.50;;
58196;SDS011;43999;51.660;5.616;2023-07-24T02:55:28;10.07;;;7.07;;
58196;SDS011;43999;51.660;5.616;2023-07-24T02:57:56;7.28;;;6.05;;
58196;SDS011;43999;51.660;5.616;2023-07-24T03:00:24;9.68;;;6.97;;
58196;SDS011;43999;51.660;5.616;2023-07-24T03:02:52;7.75;;;5.55;;
58196;SDS011;43999;51.660;5.616;2023-07-24T03:05:20;7.78;;;6.03;;
58196;SDS011;43999;51.660;5.616;2023-07-24T03:07:47;6.32;;;5.13;;
58196;SDS011;43999;51.660;5.616;2023-07-24T03:10:15;7.93;;;5.13;;
58196;SDS011;43999;51.660;5.616;2023-07-24T03:12:42;7.32;;;5.85;;
58196;SDS011;43999;51.660;5.616;2023-07-24T03:15:11;5.35;;;4.50;;
58196;SDS011;43999;51.660;5.616;2023-07-24T03:17:38;8.27;;;6.00;;
58196;SDS011;43999;51.660;5.616;2023-07-24T03:20:16;6.85;;;5.07;;
58196;SDS011;43999;51.660;5.616;2023-07-24T03:22:46;6.22;;;4.93;;
58196;SDS011;43999;51.660;5.616;2023-07-24T03:25:13;5.93;;;5.28;;
58196;SDS011;43999;51.660;5.616;2023-07-24T03:27:41;6.35;;;4.97;;
58196;SDS011;43999;51.660;5.616;2023-07-24T03:30:08;6.47;;;5.70;;
58196;SDS011;43999;51.660;5.616;2023-07-24T03:32:36;6.85;;;4.95;;
58196;SDS011;43999;51.660;5.616;2023-07-24T03:35:05;6.65;;;5.13;;
58196;SDS011;43999;51.660;5.616;2023-07-24T03:37:34;6.03;;;5.07;;
58196;SDS011;43999;51.660;5.616;2023-07-24T03:40:04;5.50;;;3.60;;
58196;SDS011;43999;51.660;5.616;2023-07-24T03:42:32;6.22;;;4.70;;
58196;SDS011;43999;51.660;5.616;2023-07-24T03:45:00;5.50;;;4.10;;
58196;SDS011;43999;51.660;5.616;2023-07-24T03:47:28;5.97;;;4.85;;
58196;SDS011;43999;51.660;5.616;2023-07-24T03:49:55;5.25;;;3.97;;
58196;SDS011;43999;51.660;5.616;2023-07-24T03:52:23;5.32;;;4.45;;
58196;SDS011;43999;51.660;5.616;2023-07-24T03:54:53;5.47;;;4.80;;
58196;SDS011;43999;51.660;5.616;2023-07-24T03:57:20;7.03;;;6.25;;
58196;SDS011;43999;51.660;5.616;2023-07-24T03:59:48;4.78;;;4.25;;
58196;SDS011;43999;51.660;5.616;2023-07-24T04:02:15;6.82;;;6.13;;
58196;SDS011;43999;51.660;5.616;2023-07-24T04:04:43;8.77;;;6.80;;
58196;SDS011;43999;51.660;5.616;2023-07-24T04:07:10;7.75;;;6.55;;
58196;SDS011;43999;51.660;5.616;2023-07-24T04:09:37;7.22;;;6.28;;
58196;SDS011;43999;51.660;5.616;2023-07-24T04:12:05;7.57;;;6.72;;
58196;SDS011;43999;51.660;5.616;2023-07-24T04:14:33;7.90;;;7.10;;
58196;SDS011;43999;51.660;5.616;2023-07-24T04:17:00;6.82;;;6.13;;
58196;SDS011;43999;51.660;5.616;2023-07-24T04:19:27;6.93;;;5.63;;
58196;SDS011;43999;51.660;5.616;2023-07-24T04:21:55;8.50;;;7.13;;
58196;SDS011;43999;51.660;5.616;2023-07-24T04:24:22;10.45;;;6.95;;
58196;SDS011;43999;51.660;5.616;2023-07-24T04:26:50;8.45;;;6.72;;
58196;SDS011;43999;51.660;5.616;2023-07-24T04:29:17;9.02;;;6.68;;
58196;SDS011;43999;51.660;5.616;2023-07-24T04:31:44;12.00;;;7.50;;
58196;SDS011;43999;51.660;5.616;2023-07-24T04:34:12;8.98;;;7.53;;
58196;SDS011;43999;51.660;5.616;2023-07-24T04:36:39;8.60;;;7.70;;
58196;SDS011;43999;51.660;5.616;2023-07-24T04:39:06;8.70;;;7.70;;
58196;SDS011;43999;51.660;5.616;2023-07-24T04:41:34;9.75;;;8.05;;
58196;SDS011;43999;51.660;5.616;2023-07-24T04:44:01;9.43;;;8.27;;
58196;SDS011;43999;51.660;5.616;2023-07-24T04:46:29;8.95;;;8.05;;
58196;SDS011;43999;51.660;5.616;2023-07-24T04:48:57;9.82;;;8.20;;
58196;SDS011;43999;51.660;5.616;2023-07-24T04:51:24;13.30;;;9.38;;
58196;SDS011;43999;51.660;5.616;2023-07-24T04:53:51;11.27;;;9.35;;
58196;SDS011;43999;51.660;5.616;2023-07-24T04:56:20;11.48;;;9.45;;
58196;SDS011;43999;51.660;5.616;2023-07-24T04:58:48;9.85;;;8.95;;
58196;SDS011;43999;51.660;5.616;2023-07-24T05:01:15;9.13;;;7.93;;
58196;SDS011;43999;51.660;5.616;2023-07-24T05:03:42;10.98;;;8.63;;
58196;SDS011;43999;51.660;5.616;2023-07-24T05:06:10;9.35;;;8.38;;
58196;SDS011;43999;51.660;5.616;2023-07-24T05:08:37;9.32;;;8.35;;
58196;SDS011;43999;51.660;5.616;2023-07-24T05:11:04;10.95;;;8.80;;
58196;SDS011;43999;51.660;5.616;2023-07-24T05:13:32;10.80;;;8.82;;
58196;SDS011;43999;51.660;5.616;2023-07-24T05:15:59;9.98;;;8.15;;
58196;SDS011;43999;51.660;5.616;2023-07-24T05:18:27;10.75;;;9.70;;
58196;SDS011;43999;51.660;5.616;2023-07-24T05:20:54;11.30;;;9.35;;
58196;SDS011;43999;51.660;5.616;2023-07-24T05:23:22;12.75;;;11.43;;
58196;SDS011;43999;51.660;5.616;2023-07-24T05:26:02;10.73;;;9.40;;
58196;SDS011;43999;51.660;5.616;2023-07-24T05:28:30;10.65;;;9.55;;
58196;SDS011;43999;51.660;5.616;2023-07-24T05:31:03;13.13;;;10.43;;
58196;SDS011;43999;51.660;5.616;2023-07-24T05:33:34;10.68;;;9.68;;
58196;SDS011;43999;51.660;5.616;2023-07-24T05:36:02;11.02;;;9.93;;
58196;SDS011;43999;51.660;5.616;2023-07-24T05:38:30;10.27;;;9.30;;
58196;SDS011;43999;51.660;5.616;2023-07-24T05:40:58;12.43;;;11.02;;
58196;SDS011;43999;51.660;5.616;2023-07-24T05:43:29;11.15;;;10.02;;
58196;SDS011;43999;51.660;5.616;2023-07-24T05:45:59;11.98;;;10.88;;
58196;SDS011;43999;51.660;5.616;2023-07-24T05:48:26;11.73;;;10.57;;
58196;SDS011;43999;51.660;5.616;2023-07-24T05:50:54;11.48;;;10.30;;
58196;SDS011;43999;51.660;5.616;2023-07-24T05:53:21;11.13;;;10.02;;
58196;SDS011;43999;51.660;5.616;2023-07-24T05:55:55;11.50;;;10.27;;
58196;SDS011;43999;51.660;5.616;2023-07-24T05:58:28;11.52;;;10.40;;
58196;SDS011;43999;51.660;5.616;2023-07-24T06:00:56;11.75;;;10.65;;
58196;SDS011;43999;51.660;5.616;2023-07-24T06:03:24;11.38;;;10.20;;
58196;SDS011;43999;51.660;5.616;2023-07-24T06:05:52;10.68;;;9.57;;
58196;SDS011;43999;51.660;5.616;2023-07-24T06:08:21;10.77;;;9.68;;
58196;SDS011;43999;51.660;5.616;2023-07-24T06:10:49;10.68;;;9.57;;
58196;SDS011;43999;51.660;5.616;2023-07-24T06:13:18;12.32;;;11.05;;
58196;SDS011;43999;51.660;5.616;2023-07-24T06:15:47;13.20;;;11.77;;
58196;SDS011;43999;51.660;5.616;2023-07-24T06:18:16;10.07;;;8.88;;
58196;SDS011;43999;51.660;5.616;2023-07-24T06:20:45;13.18;;;10.75;;
58196;SDS011;43999;51.660;5.616;2023-07-24T06:23:16;14.35;;;11.60;;
58196;SDS011;43999;51.660;5.616;2023-07-24T06:25:45;13.00;;;10.70;;
58196;SDS011;43999;51.660;5.616;2023-07-24T06:28:14;15.88;;;11.82;;
58196;SDS011;43999;51.660;5.616;2023-07-24T06:30:42;12.95;;;10.77;;
58196;SDS011;43999;51.660;5.616;2023-07-24T06:33:10;13.77;;;10.68;;
58196;SDS011;43999;51.660;5.616;2023-07-24T06:35:38;11.10;;;10.00;;
58196;SDS011;43999;51.660;5.616;2023-07-24T06:38:05;11.27;;;10.07;;
58196;SDS011;43999;51.660;5.616;2023-07-24T06:40:35;10.90;;;9.40;;
58196;SDS011;43999;51.660;5.616;2023-07-24T06:43:02;10.57;;;9.50;;
58196;SDS011;43999;51.660;5.616;2023-07-24T06:45:30;10.35;;;9.23;;
58196;SDS011;43999;51.660;5.616;2023-07-24T06:47:57;12.90;;;11.18;;
58196;SDS011;43999;51.660;5.616;2023-07-24T06:50:26;11.57;;;10.48;;
58196;SDS011;43999;51.660;5.616;2023-07-24T06:52:54;13.13;;;11.90;;
58196;SDS011;43999;51.660;5.616;2023-07-24T06:55:21;13.10;;;11.90;;
58196;SDS011;43999;51.660;5.616;2023-07-24T06:57:53;14.57;;;11.95;;
58196;SDS011;43999;51.660;5.616;2023-07-24T07:00:20;17.35;;;15.63;;
58196;SDS011;43999;51.660;5.616;2023-07-24T07:02:48;15.07;;;13.60;;
58196;SDS011;43999;51.660;5.616;2023-07-24T07:05:16;16.35;;;14.65;;
58196;SDS011;43999;51.660;5.616;2023-07-24T07:07:43;16.48;;;14.82;;
58196;SDS011;43999;51.660;5.616;2023-07-24T07:10:11;16.65;;;14.73;;
58196;SDS011;43999;51.660;5.616;2023-07-24T07:12:38;17.80;;;13.43;;
58196;SDS011;43999;51.660;5.616;2023-07-24T07:15:06;16.35;;;14.30;;
58196;SDS011;43999;51.660;5.616;2023-07-24T07:17:34;19.30;;;17.40;;
58196;SDS011;43999;51.660;5.616;2023-07-24T07:20:01;17.27;;;15.55;;
58196;SDS011;43999;51.660;5.616;2023-07-24T07:22:29;18.25;;;16.40;;
58196;SDS011;43999;51.660;5.616;2023-07-24T07:24:57;17.85;;;15.60;;
58196;SDS011;43999;51.660;5.616;2023-07-24T07:27:24;17.90;;;16.10;;
58196;SDS011;43999;51.660;5.616;2023-07-24T07:29:52;17.92;;;16.02;;
58196;SDS011;43999;51.660;5.616;2023-07-24T07:32:19;17.13;;;15.43;;
58196;SDS011;43999;51.660;5.616;2023-07-24T07:34:47;16.73;;;15.13;;
58196;SDS011;43999;51.660;5.616;2023-07-24T07:37:14;18.80;;;16.90;;
58196;SDS011;43999;51.660;5.616;2023-07-24T07:39:42;19.98;;;17.00;;
58196;SDS011;43999;51.660;5.616;2023-07-24T07:42:09;19.40;;;17.33;;
58196;SDS011;43999;51.660;5.616;2023-07-24T07:44:45;18.95;;;16.98;;
58196;SDS011;43999;51.660;5.616;2023-07-24T07:47:13;19.45;;;17.23;;
58196;SDS011;43999;51.660;5.616;2023-07-24T07:49:40;20.23;;;18.20;;
58196;SDS011;43999;51.660;5.616;2023-07-24T07:52:08;19.52;;;17.42;;
58196;SDS011;43999;51.660;5.616;2023-07-24T07:54:35;18.67;;;16.77;;
58196;SDS011;43999;51.660;5.616;2023-07-24T07:57:03;17.25;;;15.50;;
58196;SDS011;43999;51.660;5.616;2023-07-24T07:59:31;15.55;;;13.88;;
58196;SDS011;43999;51.660;5.616;2023-07-24T08:02:00;13.77;;;11.98;;
58196;SDS011;43999;51.660;5.616;2023-07-24T08:04:27;14.07;;;12.77;;
58196;SDS011;43999;51.660;5.616;2023-07-24T08:06:55;13.43;;;12.10;;
58196;SDS011;43999;51.660;5.616;2023-07-24T08:09:22;14.38;;;12.20;;
58196;SDS011;43999;51.660;5.616;2023-07-24T08:11:50;14.93;;;13.52;;
58196;SDS011;43999;51.660;5.616;2023-07-24T08:14:18;14.50;;;12.60;;
58196;SDS011;43999;51.660;5.616;2023-07-24T08:16:49;14.10;;;12.63;;
58196;SDS011;43999;51.660;5.616;2023-07-24T08:19:17;12.27;;;11.07;;
58196;SDS011;43999;51.660;5.616;2023-07-24T08:21:46;13.73;;;12.43;;
58196;SDS011;43999;51.660;5.616;2023-07-24T08:24:14;10.95;;;9.82;;
58196;SDS011;43999;51.660;5.616;2023-07-24T08:26:41;12.50;;;11.40;;
58196;SDS011;43999;51.660;5.616;2023-07-24T08:29:08;11.77;;;10.50;;
58196;SDS011;43999;51.660;5.616;2023-07-24T08:31:36;11.60;;;10.43;;
58196;SDS011;43999;51.660;5.616;2023-07-24T08:34:03;12.95;;;11.65;;
58196;SDS011;43999;51.660;5.616;2023-07-24T08:36:31;11.60;;;10.32;;
58196;SDS011;43999;51.660;5.616;2023-07-24T08:38:58;12.60;;;11.40;;
58196;SDS011;43999;51.660;5.616;2023-07-24T08:41:26;13.60;;;12.20;;
58196;SDS011;43999;51.660;5.616;2023-07-24T08:43:53;13.45;;;12.30;;
58196;SDS011;43999;51.660;5.616;2023-07-24T08:46:21;12.70;;;11.38;;
58196;SDS011;43999;51.660;5.616;2023-07-24T08:48:50;12.23;;;11.00;;
58196;SDS011;43999;51.660;5.616;2023-07-24T08:51:21;13.73;;;12.52;;
58196;SDS011;43999;51.660;5.616;2023-07-24T08:53:49;14.23;;;12.82;;
58196;SDS011;43999;51.660;5.616;2023-07-24T08:56:17;13.98;;;12.65;;
58196;SDS011;43999;51.660;5.616;2023-07-24T08:58:44;12.68;;;11.55;;
58196;SDS011;43999;51.660;5.616;2023-07-24T09:01:12;14.70;;;13.35;;
58196;SDS011;43999;51.660;5.616;2023-07-24T09:03:40;14.40;;;13.02;;
58196;SDS011;43999;51.660;5.616;2023-07-24T09:06:07;16.23;;;14.85;;
58196;SDS011;43999;51.660;5.616;2023-07-24T09:08:36;16.55;;;14.10;;
58196;SDS011;43999;51.660;5.616;2023-07-24T09:11:09;17.80;;;16.10;;
58196;SDS011;43999;51.660;5.616;2023-07-24T09:13:41;15.98;;;14.50;;
58196;SDS011;43999;51.660;5.616;2023-07-24T09:16:20;16.35;;;14.93;;
58196;SDS011;43999;51.660;5.616;2023-07-24T09:18:53;16.60;;;14.80;;
58196;SDS011;43999;51.660;5.616;2023-07-24T09:21:27;16.52;;;15.10;;
58196;SDS011;43999;51.660;5.616;2023-07-24T09:24:09;17.85;;;15.05;;
58196;SDS011;43999;51.660;5.616;2023-07-24T09:26:48;15.13;;;13.70;;
58196;SDS011;43999;51.660;5.616;2023-07-24T09:29:30;14.60;;;13.05;;
58196;SDS011;43999;51.660;5.616;2023-07-24T09:31:59;12.35;;;11.35;;
58196;SDS011;43999;51.660;5.616;2023-07-24T09:34:27;12.63;;;11.32;;
58196;SDS011;43999;51.660;5.616;2023-07-24T09:36:55;13.43;;;12.20;;
58196;SDS011;43999;51.660;5.616;2023-07-24T09:39:23;12.23;;;11.20;;
58196;SDS011;43999;51.660;5.616;2023-07-24T09:42:02;11.77;;;10.77;;
58196;SDS011;43999;51.660;5.616;2023-07-24T09:44:33;9.52;;;8.68;;
58196;SDS011;43999;51.660;5.616;2023-07-24T09:47:01;10.52;;;9.73;;
58196;SDS011;43999;51.660;5.616;2023-07-24T09:49:50;10.70;;;9.60;;
58196;SDS011;43999;51.660;5.616;2023-07-24T09:52:23;10.77;;;9.73;;
58196;SDS011;43999;51.660;5.616;2023-07-24T09:55:13;10.88;;;9.98;;
58196;SDS011;43999;51.660;5.616;2023-07-24T09:57:53;9.93;;;9.02;;
58196;SDS011;43999;51.660;5.616;2023-07-24T10:00:21;9.73;;;8.82;;
58196;SDS011;43999;51.660;5.616;2023-07-24T10:02:50;10.23;;;9.30;;
58196;SDS011;43999;51.660;5.616;2023-07-24T10:05:19;10.45;;;9.43;;
58196;SDS011;43999;51.660;5.616;2023-07-24T10:07:47;9.98;;;8.95;;
58196;SDS011;43999;51.660;5.616;2023-07-24T10:10:16;10.35;;;9.45;;
58196;SDS011;43999;51.660;5.616;2023-07-24T10:12:44;10.25;;;9.00;;
58196;SDS011;43999;51.660;5.616;2023-07-24T10:15:12;11.10;;;10.20;;
58196;SDS011;43999;51.660;5.616;2023-07-24T10:17:41;9.48;;;8.57;;
58196;SDS011;43999;51.660;5.616;2023-07-24T10:20:10;9.40;;;8.57;;
58196;SDS011;43999;51.660;5.616;2023-07-24T10:22:41;11.68;;;10.63;;
58196;SDS011;43999;51.660;5.616;2023-07-24T10:25:10;10.98;;;9.98;;
58196;SDS011;43999;51.660;5.616;2023-07-24T10:27:42;9.38;;;8.57;;
58196;SDS011;43999;51.660;5.616;2023-07-24T10:30:12;11.73;;;10.73;;
58196;SDS011;43999;51.660;5.616;2023-07-24T10:33:09;12.65;;;11.45;;
58196;SDS011;43999;51.660;5.616;2023-07-24T10:35:52;10.58;;;9.54;;
58196;SDS011;43999;51.660;5.616;2023-07-24T10:38:33;12.18;;;10.88;;
58196;SDS011;43999;51.660;5.616;2023-07-24T10:41:06;12.63;;;11.50;;
58196;SDS011;43999;51.660;5.616;2023-07-24T10:43:47;12.05;;;10.95;;
58196;SDS011;43999;51.660;5.616;2023-07-24T10:46:34;15.55;;;14.05;;
58196;SDS011;43999;51.660;5.616;2023-07-24T10:49:07;14.82;;;13.32;;
58196;SDS011;43999;51.660;5.616;2023-07-24T10:51:36;12.55;;;11.35;;
58196;SDS011;43999;51.660;5.616;2023-07-24T10:54:06;13.30;;;12.20;;
58196;SDS011;43999;51.660;5.616;2023-07-24T10:56:33;13.98;;;12.70;;
58196;SDS011;43999;51.660;5.616;2023-07-24T10:59:04;12.93;;;11.77;;
58196;SDS011;43999;51.660;5.616;2023-07-24T11:01:32;12.90;;;11.70;;
58196;SDS011;43999;51.660;5.616;2023-07-24T11:04:01;12.60;;;11.20;;
58196;SDS011;43999;51.660;5.616;2023-07-24T11:06:29;11.95;;;10.85;;
58196;SDS011;43999;51.660;5.616;2023-07-24T11:08:57;12.45;;;11.35;;
58196;SDS011;43999;51.660;5.616;2023-07-24T11:11:30;11.00;;;9.90;;
58196;SDS011;43999;51.660;5.616;2023-07-24T11:14:02;10.18;;;9.15;;
58196;SDS011;43999;51.660;5.616;2023-07-24T11:16:30;9.13;;;8.32;;
58196;SDS011;43999;51.660;5.616;2023-07-24T11:19:00;8.80;;;7.97;;
58196;SDS011;43999;51.660;5.616;2023-07-24T11:21:27;10.30;;;9.48;;
58196;SDS011;43999;51.660;5.616;2023-07-24T11:23:56;8.77;;;7.97;;
58196;SDS011;43999;51.660;5.616;2023-07-24T11:26:25;8.82;;;8.02;;
58196;SDS011;43999;51.660;5.616;2023-07-24T11:28:54;8.88;;;8.07;;
58196;SDS011;43999;51.660;5.616;2023-07-24T11:31:22;10.10;;;9.23;;
58196;SDS011;43999;51.660;5.616;2023-07-24T11:33:49;9.85;;;9.05;;
58196;SDS011;43999;51.660;5.616;2023-07-24T11:36:19;9.20;;;8.40;;
58196;SDS011;43999;51.660;5.616;2023-07-24T11:38:48;10.30;;;9.30;;
58196;SDS011;43999;51.660;5.616;2023-07-24T11:41:16;10.10;;;9.18;;
58196;SDS011;43999;51.660;5.616;2023-07-24T11:43:45;9.63;;;8.68;;
58196;SDS011;43999;51.660;5.616;2023-07-24T11:46:27;9.63;;;8.80;;
58196;SDS011;43999;51.660;5.616;2023-07-24T11:48:58;9.82;;;8.90;;
58196;SDS011;43999;51.660;5.616;2023-07-24T11:51:26;10.30;;;9.30;;
58196;SDS011;43999;51.660;5.616;2023-07-24T11:54:06;10.93;;;9.90;;
58196;SDS011;43999;51.660;5.616;2023-07-24T11:56:35;9.30;;;8.50;;
58196;SDS011;43999;51.660;5.616;2023-07-24T11:59:13;9.93;;;9.02;;
58196;SDS011;43999;51.660;5.616;2023-07-24T12:01:45;10.23;;;9.13;;
58196;SDS011;43999;51.660;5.616;2023-07-24T12:04:15;9.88;;;8.98;;
58196;SDS011;43999;51.660;5.616;2023-07-24T12:06:43;20.13;;;11.18;;
58196;SDS011;43999;51.660;5.616;2023-07-24T12:09:11;12.80;;;11.80;;
58196;SDS011;43999;51.660;5.616;2023-07-24T12:11:39;12.55;;;11.35;;
58196;SDS011;43999;51.660;5.616;2023-07-24T12:14:15;12.90;;;11.70;;
58196;SDS011;43999;51.660;5.616;2023-07-24T12:16:42;12.20;;;11.02;;
58196;SDS011;43999;51.660;5.616;2023-07-24T12:19:10;10.35;;;9.38;;
58196;SDS011;43999;51.660;5.616;2023-07-24T12:21:37;10.65;;;9.75;;
58196;SDS011;43999;51.660;5.616;2023-07-24T12:24:05;10.18;;;9.27;;
58196;SDS011;43999;51.660;5.616;2023-07-24T12:26:32;11.02;;;10.13;;
58196;SDS011;43999;51.660;5.616;2023-07-24T12:29:00;12.02;;;10.82;;
58196;SDS011;43999;51.660;5.616;2023-07-24T12:31:27;13.85;;;12.73;;
58196;SDS011;43999;51.660;5.616;2023-07-24T12:33:56;12.55;;;11.25;;
58196;SDS011;43999;51.660;5.616;2023-07-24T12:36:23;12.52;;;11.43;;
58196;SDS011;43999;51.660;5.616;2023-07-24T12:38:51;12.45;;;10.38;;
58196;SDS011;43999;51.660;5.616;2023-07-24T12:41:18;11.88;;;10.88;;
58196;SDS011;43999;51.660;5.616;2023-07-24T12:43:46;10.27;;;9.25;;
58196;SDS011;43999;51.660;5.616;2023-07-24T12:46:13;12.57;;;11.35;;
58196;SDS011;43999;51.660;5.616;2023-07-24T12:48:41;10.73;;;9.88;;
58196;SDS011;43999;51.660;5.616;2023-07-24T12:51:10;13.15;;;11.88;;
58196;SDS011;43999;51.660;5.616;2023-07-24T12:53:43;11.88;;;10.75;;
58196;SDS011;43999;51.660;5.616;2023-07-24T12:56:31;10.20;;;9.30;;
58196;SDS011;43999;51.660;5.616;2023-07-24T12:58:59;12.18;;;11.10;;
58196;SDS011;43999;51.660;5.616;2023-07-24T13:01:29;13.15;;;11.98;;
58196;SDS011;43999;51.660;5.616;2023-07-24T13:03:57;13.45;;;12.15;;
58196;SDS011;43999;51.660;5.616;2023-07-24T13:06:26;13.93;;;12.50;;
58196;SDS011;43999;51.660;5.616;2023-07-24T13:08:54;14.30;;;12.07;;
58196;SDS011;43999;51.660;5.616;2023-07-24T13:11:21;16.15;;;14.70;;
58196;SDS011;43999;51.660;5.616;2023-07-24T13:13:49;18.42;;;16.63;;
58196;SDS011;43999;51.660;5.616;2023-07-24T13:16:16;15.88;;;14.40;;
58196;SDS011;43999;51.660;5.616;2023-07-24T13:18:44;17.05;;;15.45;;
58196;SDS011;43999;51.660;5.616;2023-07-24T13:21:11;15.10;;;13.88;;
58196;SDS011;43999;51.660;5.616;2023-07-24T13:23:40;16.75;;;15.35;;
58196;SDS011;43999;51.660;5.616;2023-07-24T13:26:08;16.40;;;15.00;;
58196;SDS011;43999;51.660;5.616;2023-07-24T13:28:37;18.50;;;16.75;;
58196;SDS011;43999;51.660;5.616;2023-07-24T13:31:11;17.50;;;16.00;;
58196;SDS011;43999;51.660;5.616;2023-07-24T13:33:45;17.90;;;16.38;;
58196;SDS011;43999;51.660;5.616;2023-07-24T13:36:13;18.70;;;17.13;;
58196;SDS011;43999;51.660;5.616;2023-07-24T13:38:41;18.73;;;17.10;;
58196;SDS011;43999;51.660;5.616;2023-07-24T13:41:08;18.13;;;16.38;;
58196;SDS011;43999;51.660;5.616;2023-07-24T13:43:36;18.90;;;17.00;;
58196;SDS011;43999;51.660;5.616;2023-07-24T13:46:03;20.40;;;18.52;;
58196;SDS011;43999;51.660;5.616;2023-07-24T13:48:34;20.55;;;18.65;;
58196;SDS011;43999;51.660;5.616;2023-07-24T13:51:02;22.00;;;19.90;;
58196;SDS011;43999;51.660;5.616;2023-07-24T13:53:29;23.30;;;21.13;;
58196;SDS011;43999;51.660;5.616;2023-07-24T13:55:57;21.42;;;19.63;;
58196;SDS011;43999;51.660;5.616;2023-07-24T13:58:24;24.02;;;21.60;;
58196;SDS011;43999;51.660;5.616;2023-07-24T14:00:51;24.08;;;22.00;;
58196;SDS011;43999;51.660;5.616;2023-07-24T14:03:19;22.70;;;20.48;;
58196;SDS011;43999;51.660;5.616;2023-07-24T14:05:46;22.05;;;20.15;;
58196;SDS011;43999;51.660;5.616;2023-07-24T14:08:14;22.75;;;20.40;;
58196;SDS011;43999;51.660;5.616;2023-07-24T14:10:41;19.67;;;17.83;;
58196;SDS011;43999;51.660;5.616;2023-07-24T14:13:09;21.85;;;19.85;;
58196;SDS011;43999;51.660;5.616;2023-07-24T14:15:36;21.50;;;19.45;;
58196;SDS011;43999;51.660;5.616;2023-07-24T14:18:04;22.95;;;20.77;;
58196;SDS011;43999;51.660;5.616;2023-07-24T14:20:31;24.02;;;21.90;;
58196;SDS011;43999;51.660;5.616;2023-07-24T14:22:59;20.75;;;18.95;;
58196;SDS011;43999;51.660;5.616;2023-07-24T14:25:26;18.20;;;16.40;;
58196;SDS011;43999;51.660;5.616;2023-07-24T14:27:54;13.70;;;12.25;;
58196;SDS011;43999;51.660;5.616;2023-07-24T14:30:21;13.15;;;11.93;;
58196;SDS011;43999;51.660;5.616;2023-07-24T14:32:48;12.40;;;11.32;;
58196;SDS011;43999;51.660;5.616;2023-07-24T14:35:18;13.93;;;12.63;;
58196;SDS011;43999;51.660;5.616;2023-07-24T14:37:45;15.38;;;14.07;;
58196;SDS011;43999;51.660;5.616;2023-07-24T14:40:12;19.35;;;17.52;;
58196;SDS011;43999;51.660;5.616;2023-07-24T14:42:40;18.75;;;17.05;;
58196;SDS011;43999;51.660;5.616;2023-07-24T14:45:07;19.58;;;17.73;;
58196;SDS011;43999;51.660;5.616;2023-07-24T14:47:36;16.65;;;15.13;;